createdAt,value
2023-10-20T00:00:01.024Z,15.10
2023-10-20T00:02:29.304Z,15.00
2023-10-20T00:04:56.414Z,15.00
2023-10-20T00:07:23.300Z,14.90
2023-10-20T00:09:51.052Z,14.70
2023-10-20T00:12:18.115Z,14.70
2023-10-20T00:14:46.092Z,14.60
2023-10-20T00:17:13.162Z,14.50
2023-10-20T00:19:40.018Z,14.40
2023-10-20T00:22:07.430Z,14.30
2023-10-20T00:24:34.386Z,14.30
2023-10-20T00:27:01.427Z,14.30
2023-10-20T00:29:28.259Z,14.30
2023-10-20T00:31:55.324Z,14.20
2023-10-20T00:34:22.404Z,14.10
2023-10-20T00:36:49.316Z,14.10
2023-10-20T00:39:17.849Z,14.10
2023-10-20T00:41:45.281Z,14.10
2023-10-20T00:44:12.206Z,14.10
2023-10-20T00:46:39.293Z,14.00
2023-10-20T00:49:06.246Z,13.90
2023-10-20T00:51:33.297Z,13.90
2023-10-20T00:54:01.522Z,13.90
2023-10-20T00:56:30.294Z,14.00
2023-10-20T00:58:57.424Z,14.10
2023-10-20T01:01:24.577Z,13.90
2023-10-20T01:03:51.978Z,13.80
2023-10-20T01:06:18.992Z,13.90
2023-10-20T01:08:45.895Z,13.80
2023-10-20T01:11:12.799Z,13.80
2023-10-20T01:13:39.942Z,13.80
2023-10-20T01:16:06.887Z,13.70
2023-10-20T01:18:33.903Z,13.70
2023-10-20T01:21:00.793Z,13.70
2023-10-20T01:23:27.911Z,13.70
2023-10-20T01:25:54.957Z,13.70
2023-10-20T01:28:21.797Z,13.70
2023-10-20T01:30:49.029Z,13.70
2023-10-20T01:33:16.081Z,13.70
2023-10-20T01:35:43.061Z,13.60
2023-10-20T01:38:09.968Z,13.50
2023-10-20T01:40:36.827Z,13.50
2023-10-20T01:43:03.863Z,13.50
2023-10-20T01:45:30.794Z,13.50
2023-10-20T01:47:57.656Z,13.50
2023-10-20T01:50:25.003Z,13.40
2023-10-20T01:52:52.047Z,13.40
2023-10-20T01:55:19.246Z,13.50
2023-10-20T01:57:46.251Z,13.50
2023-10-20T02:00:15.054Z,14.00
2023-10-20T02:02:42.289Z,13.50
2023-10-20T02:05:09.852Z,13.50
2023-10-20T02:07:38.058Z,13.50
2023-10-20T02:10:07.834Z,13.50
2023-10-20T02:12:35.627Z,13.40
2023-10-20T02:15:02.540Z,13.50
2023-10-20T02:17:30.214Z,13.40
2023-10-20T02:19:58.621Z,13.40
2023-10-20T02:22:26.405Z,13.40
2023-10-20T02:24:54.260Z,13.40
2023-10-20T02:27:21.407Z,13.40
2023-10-20T02:29:48.310Z,13.40
2023-10-20T02:32:15.378Z,13.20
2023-10-20T02:34:42.389Z,13.40
2023-10-20T02:37:13.528Z,13.40
2023-10-20T02:39:41.116Z,13.40
2023-10-20T02:42:08.160Z,13.40
2023-10-20T02:44:35.312Z,13.40
2023-10-20T02:47:02.392Z,13.40
2023-10-20T02:49:29.415Z,13.40
2023-10-20T02:51:57.021Z,13.40
2023-10-20T02:54:23.969Z,13.40
2023-10-20T02:56:50.949Z,13.40
2023-10-20T02:59:18.130Z,13.40
2023-10-20T03:01:45.030Z,13.40
2023-10-20T03:04:12.139Z,13.40
2023-10-20T03:06:39.114Z,13.40
2023-10-20T03:09:06.302Z,13.40
2023-10-20T03:11:33.285Z,13.30
2023-10-20T03:14:00.393Z,13.30
2023-10-20T03:16:27.994Z,13.30
2023-10-20T03:18:55.244Z,13.30
2023-10-20T03:21:22.962Z,13.20
2023-10-20T03:23:49.955Z,13.30
2023-10-20T03:26:17.167Z,13.20
2023-10-20T03:28:44.875Z,13.10
2023-10-20T03:31:11.877Z,13.10
2023-10-20T03:33:38.899Z,13.10
2023-10-20T03:36:06.338Z,12.90
2023-10-20T03:38:34.408Z,13.00
2023-10-20T03:41:10.899Z,13.00
2023-10-20T03:43:38.121Z,13.00
2023-10-20T03:46:06.266Z,13.00
2023-10-20T03:48:36.355Z,12.90
2023-10-20T03:51:06.779Z,12.70
2023-10-20T03:53:44.889Z,12.50
2023-10-20T03:56:12.090Z,12.80
2023-10-20T03:58:39.296Z,12.40
2023-10-20T04:01:08.084Z,12.60
2023-10-20T04:03:35.494Z,12.70
2023-10-20T04:06:09.600Z,12.70
2023-10-20T04:08:36.650Z,12.70
2023-10-20T04:11:15.282Z,12.60
2023-10-20T04:13:42.371Z,12.40
2023-10-20T04:16:15.056Z,12.50
2023-10-20T04:18:43.223Z,12.20
2023-10-20T04:21:13.389Z,12.10
2023-10-20T04:23:43.590Z,12.50
2023-10-20T04:26:22.090Z,13.20
2023-10-20T04:28:52.473Z,12.40
2023-10-20T04:31:38.151Z,11.90
2023-10-20T04:34:21.578Z,12.50
2023-10-20T04:37:03.830Z,11.90
2023-10-20T04:39:46.186Z,12.90
2023-10-20T04:42:28.837Z,12.70
2023-10-20T04:45:15.854Z,12.50
2023-10-20T04:48:03.005Z,12.30
2023-10-20T04:50:45.585Z,12.70
2023-10-20T04:53:12.602Z,10.40
2023-10-20T04:55:54.774Z,12.30
2023-10-20T04:58:35.933Z,11.10
2023-10-20T05:01:17.357Z,12.10
2023-10-20T05:03:47.605Z,12.00
2023-10-20T05:06:31.529Z,12.20
2023-10-20T05:08:58.756Z,11.50
2023-10-20T05:11:25.749Z,11.90
2023-10-20T05:13:52.954Z,12.40
2023-10-20T05:16:23.100Z,12.50
2023-10-20T05:18:50.177Z,11.70
2023-10-20T05:21:17.167Z,12.30
2023-10-20T05:23:45.360Z,11.80
2023-10-20T05:26:12.338Z,12.20
2023-10-20T05:28:39.402Z,12.00
2023-10-20T05:31:06.449Z,11.90
2023-10-20T05:33:33.487Z,12.10
2023-10-20T05:36:04.800Z,12.10
2023-10-20T05:38:32.469Z,12.30
2023-10-20T05:41:00.726Z,11.90
2023-10-20T05:43:28.805Z,12.10
2023-10-20T05:45:55.973Z,11.90
2023-10-20T05:48:23.127Z,12.00
2023-10-20T05:50:56.202Z,12.40
2023-10-20T05:53:24.021Z,11.90
2023-10-20T05:55:51.211Z,11.00
2023-10-20T05:58:18.556Z,11.80
2023-10-20T06:01:01.823Z,10.10
2023-10-20T06:03:30.497Z,10.70
2023-10-20T06:06:02.185Z,12.10
2023-10-20T06:08:30.484Z,11.70
2023-10-20T06:11:04.118Z,11.20
2023-10-20T06:13:34.198Z,11.50
2023-10-20T06:16:10.758Z,11.30
2023-10-20T06:18:39.860Z,11.00
2023-10-20T06:21:08.396Z,11.80
2023-10-20T06:23:35.442Z,11.50
2023-10-20T06:26:02.634Z,12.70
2023-10-20T06:28:29.496Z,12.70
2023-10-20T06:31:01.020Z,12.80
2023-10-20T06:33:33.923Z,12.90
2023-10-20T06:36:11.931Z,13.00
2023-10-20T06:38:42.376Z,13.30
2023-10-20T06:41:09.777Z,13.40
2023-10-20T06:43:36.725Z,13.40
2023-10-20T06:46:03.800Z,13.50
2023-10-20T06:48:30.821Z,13.80
2023-10-20T06:50:58.290Z,13.80
2023-10-20T06:53:58.205Z,14.20
2023-10-20T07:10:19.108Z,14.60
2023-10-20T07:12:46.139Z,13.50
2023-10-20T07:15:13.331Z,14.70
2023-10-20T07:17:40.443Z,14.90
2023-10-20T07:20:08.523Z,14.10
2023-10-20T07:22:36.129Z,12.90
2023-10-20T07:25:05.120Z,16.20
2023-10-20T07:27:32.653Z,14.20
2023-10-20T07:30:00.553Z,15.20
2023-10-20T07:32:27.746Z,13.40
2023-10-20T07:34:54.636Z,14.20
2023-10-20T07:37:21.884Z,15.00
2023-10-20T07:39:48.863Z,15.00
2023-10-20T07:42:20.795Z,15.30
2023-10-20T07:44:48.434Z,14.80
2023-10-20T07:47:15.569Z,14.00
2023-10-20T07:49:42.674Z,14.20
2023-10-20T07:52:09.630Z,14.80
2023-10-20T07:54:36.867Z,14.70
2023-10-20T07:57:04.397Z,14.10
2023-10-20T07:59:31.604Z,15.10
2023-10-20T08:01:58.820Z,14.20
2023-10-20T08:04:28.105Z,14.20
2023-10-20T08:06:56.794Z,14.50
2023-10-20T08:09:33.581Z,15.00
2023-10-20T08:12:00.779Z,14.40
2023-10-20T08:14:31.857Z,14.50
2023-10-20T08:17:13.273Z,16.60
2023-10-20T08:19:48.547Z,14.10
2023-10-20T08:22:24.758Z,15.80
2023-10-20T08:25:04.260Z,16.90
2023-10-20T08:27:32.197Z,17.20
2023-10-20T08:29:59.482Z,17.30
2023-10-20T08:32:26.654Z,17.60
2023-10-20T08:34:54.337Z,16.90
2023-10-20T08:37:21.828Z,16.80
2023-10-20T08:39:48.947Z,16.40
2023-10-20T08:42:23.493Z,16.60
2023-10-20T08:44:51.714Z,16.00
2023-10-20T08:47:21.144Z,16.00
2023-10-20T08:49:49.003Z,15.80
2023-10-20T08:56:17.310Z,16.00
2023-10-20T08:58:49.050Z,16.00
2023-10-20T09:01:19.894Z,15.70
2023-10-20T09:04:05.075Z,16.00
2023-10-20T09:06:32.190Z,15.90
2023-10-20T09:09:01.246Z,16.00
2023-10-20T09:11:35.867Z,15.90
2023-10-20T09:14:04.081Z,16.00
2023-10-20T09:16:31.368Z,15.80
2023-10-20T09:18:58.509Z,15.90
2023-10-20T09:21:27.091Z,15.80
2023-10-20T09:23:57.908Z,15.70
2023-10-20T09:26:26.771Z,15.80
2023-10-20T09:28:55.532Z,15.70
2023-10-20T09:31:24.030Z,15.90
2023-10-20T09:33:56.671Z,15.50
2023-10-20T09:36:25.287Z,16.10
2023-10-20T09:38:54.137Z,15.70
2023-10-20T09:41:25.710Z,16.90
2023-10-20T09:47:10.101Z,16.80
2023-10-20T09:49:40.421Z,16.60
2023-10-20T09:52:07.860Z,17.30
2023-10-20T09:54:36.937Z,17.20
2023-10-20T09:57:15.323Z,17.70
2023-10-20T09:59:43.269Z,19.90
2023-10-20T10:02:10.482Z,18.90
2023-10-20T10:04:41.274Z,19.00
2023-10-20T10:07:09.625Z,19.30
2023-10-20T10:09:39.565Z,19.20
2023-10-20T10:12:12.051Z,19.10
2023-10-20T10:14:39.209Z,19.20
2023-10-20T10:17:13.472Z,19.20
2023-10-20T10:19:52.460Z,19.50
2023-10-20T10:22:27.963Z,20.10
2023-10-20T10:24:57.213Z,20.50
2023-10-20T10:27:29.316Z,20.20
2023-10-20T10:30:01.672Z,19.90
2023-10-20T10:32:32.941Z,20.00
2023-10-20T10:35:01.447Z,20.20
2023-10-20T10:37:33.079Z,20.90
2023-10-20T10:40:11.761Z,21.50
2023-10-20T10:42:45.721Z,21.30
2023-10-20T10:45:31.788Z,21.00
2023-10-20T10:48:11.097Z,20.80
2023-10-20T10:50:42.942Z,20.50
2023-10-20T10:53:13.185Z,20.00
2023-10-20T10:55:42.252Z,20.00
2023-10-20T10:58:11.726Z,19.90
2023-10-20T11:00:39.706Z,19.80
2023-10-20T11:03:07.672Z,19.50
2023-10-20T11:05:35.385Z,19.60
2023-10-20T11:08:04.126Z,19.80
2023-10-20T11:10:34.460Z,19.60
2023-10-20T11:13:05.501Z,19.50
2023-10-20T11:15:34.123Z,19.40
2023-10-20T11:18:03.599Z,19.10
2023-10-20T11:20:37.752Z,19.00
2023-10-20T11:23:08.875Z,18.90
2023-10-20T11:25:38.276Z,18.80
2023-10-20T11:28:07.528Z,18.50
2023-10-20T11:30:39.817Z,18.50
2023-10-20T11:33:07.890Z,18.40
2023-10-20T11:35:34.964Z,18.50
2023-10-20T11:38:02.423Z,18.50
2023-10-20T11:40:29.564Z,18.50
2023-10-20T11:42:57.680Z,18.30
2023-10-20T11:45:25.914Z,18.50
2023-10-20T11:47:53.538Z,18.40
2023-10-20T11:50:21.111Z,18.70
2023-10-20T11:52:48.974Z,18.60
2023-10-20T11:55:16.322Z,18.70
2023-10-20T11:57:43.639Z,18.70
2023-10-20T12:00:11.430Z,18.60
2023-10-20T12:02:40.392Z,19.00
2023-10-20T12:05:08.712Z,19.20
2023-10-20T12:07:36.552Z,19.30
2023-10-20T12:10:07.494Z,19.30
2023-10-20T12:12:35.851Z,19.30
2023-10-20T12:15:04.539Z,19.30
2023-10-20T12:17:32.374Z,19.10
2023-10-20T12:20:00.529Z,19.00
2023-10-20T12:22:27.630Z,18.90
2023-10-20T12:24:55.052Z,18.80
2023-10-20T12:27:22.966Z,18.90
2023-10-20T12:29:49.927Z,18.60
2023-10-20T12:32:17.716Z,18.60
2023-10-20T12:34:45.105Z,17.90
2023-10-20T12:37:12.185Z,18.70
2023-10-20T12:39:43.486Z,18.60
2023-10-20T12:42:10.736Z,18.40
2023-10-20T12:44:38.276Z,18.30
2023-10-20T12:47:07.491Z,18.10
2023-10-20T12:49:34.696Z,18.60
2023-10-20T12:52:03.682Z,18.20
2023-10-20T12:54:31.406Z,18.10
2023-10-20T12:57:00.736Z,19.00
2023-10-20T12:59:27.749Z,18.50
2023-10-20T13:01:57.664Z,18.30
2023-10-20T13:04:25.723Z,18.40
2023-10-20T13:07:00.642Z,18.40
2023-10-20T13:09:31.296Z,19.00
2023-10-20T13:11:59.113Z,19.80
2023-10-20T13:14:27.698Z,18.90
2023-10-20T13:16:58.189Z,18.30
2023-10-20T13:19:25.866Z,18.20
2023-10-20T13:21:54.125Z,18.60
2023-10-20T13:24:21.804Z,18.20
2023-10-20T13:26:48.982Z,18.10
2023-10-20T13:29:17.191Z,17.80
2023-10-20T13:31:44.748Z,18.00
2023-10-20T13:34:12.274Z,18.20
2023-10-20T13:36:39.385Z,18.10
2023-10-20T13:39:17.212Z,18.00
2023-10-20T13:41:47.127Z,18.00
2023-10-20T13:44:15.862Z,17.80
2023-10-20T13:46:42.901Z,17.60
2023-10-20T13:49:10.181Z,18.50
2023-10-20T13:51:37.397Z,17.90
2023-10-20T13:54:04.606Z,18.10
2023-10-20T13:56:31.587Z,17.70
2023-10-20T13:58:58.671Z,17.70
2023-10-20T14:01:25.676Z,17.50
2023-10-20T14:03:53.927Z,17.40
2023-10-20T14:06:21.681Z,17.50
2023-10-20T14:08:48.951Z,18.00
2023-10-20T14:11:16.446Z,17.00
2023-10-20T14:13:44.258Z,17.30
2023-10-20T14:16:11.492Z,17.30
2023-10-20T14:18:38.709Z,16.70
2023-10-20T14:21:06.500Z,17.20
2023-10-20T14:23:36.914Z,17.20
2023-10-20T14:26:04.237Z,17.80
2023-10-20T14:28:32.946Z,17.00
2023-10-20T14:31:02.620Z,17.20
2023-10-20T14:33:30.376Z,16.90
2023-10-20T14:35:58.605Z,16.10
2023-10-20T14:38:26.559Z,16.60
2023-10-20T14:41:03.240Z,17.10
2023-10-20T14:43:33.787Z,16.70
2023-10-20T14:46:01.999Z,16.10
2023-10-20T14:48:29.345Z,16.20
2023-10-20T14:50:57.188Z,15.80
2023-10-20T14:53:24.617Z,15.40
2023-10-20T14:55:51.656Z,15.60
2023-10-20T14:58:19.286Z,15.50
2023-10-20T15:00:49.616Z,15.30
2023-10-20T15:03:18.099Z,15.30
2023-10-20T15:05:46.590Z,15.20
2023-10-20T15:08:13.605Z,15.00
2023-10-20T15:10:40.921Z,15.00
2023-10-20T15:13:07.960Z,14.90
2023-10-20T15:15:36.520Z,14.60
2023-10-20T15:18:03.896Z,14.50
2023-10-20T15:20:31.401Z,14.60
2023-10-20T15:23:06.738Z,14.60
2023-10-20T15:25:42.202Z,14.60
2023-10-20T15:28:09.215Z,14.50
2023-10-20T15:30:36.286Z,13.00
2023-10-20T15:33:03.624Z,14.10
2023-10-20T15:35:30.660Z,14.10
2023-10-20T15:37:58.600Z,14.10
2023-10-20T15:40:25.898Z,14.10
2023-10-20T15:42:52.887Z,14.00
2023-10-20T15:45:20.267Z,13.90
2023-10-20T15:47:49.827Z,13.90
2023-10-20T15:50:16.978Z,13.50
2023-10-20T15:52:44.039Z,13.80
2023-10-20T15:55:11.061Z,13.80
2023-10-20T15:57:38.280Z,13.90
2023-10-20T16:00:05.898Z,13.70
2023-10-20T16:02:32.829Z,13.80
2023-10-20T16:04:59.917Z,13.80
2023-10-20T16:07:26.775Z,14.20
2023-10-20T16:09:53.685Z,14.30
2023-10-20T16:12:21.102Z,14.00
2023-10-20T16:14:48.371Z,13.70
2023-10-20T16:17:15.972Z,13.80
2023-10-20T16:19:44.353Z,13.60
2023-10-20T16:22:11.864Z,13.50
2023-10-20T16:24:40.090Z,13.50
2023-10-20T16:27:07.267Z,13.60
2023-10-20T16:29:34.931Z,13.30
2023-10-20T16:32:02.097Z,13.70
2023-10-20T16:34:29.589Z,13.70
2023-10-20T16:36:56.638Z,13.70
2023-10-20T16:39:24.184Z,13.60
2023-10-20T16:41:52.272Z,13.70
2023-10-20T16:44:19.236Z,13.70
2023-10-20T16:46:46.229Z,13.80
2023-10-20T16:49:14.428Z,14.00
2023-10-20T16:51:44.836Z,13.90
2023-10-20T16:54:15.578Z,14.00
2023-10-20T16:56:43.575Z,13.90
2023-10-20T16:59:12.259Z,13.70
2023-10-20T17:01:39.754Z,13.80
2023-10-20T17:04:07.054Z,14.10
2023-10-20T17:06:34.176Z,13.70
2023-10-20T17:09:01.088Z,13.90
2023-10-20T17:11:28.428Z,13.80
2023-10-20T17:13:55.687Z,13.90
2023-10-20T17:16:22.659Z,13.80
2023-10-20T17:18:49.718Z,13.80
2023-10-20T17:21:16.857Z,13.80
2023-10-20T17:23:43.945Z,13.90
2023-10-20T17:26:11.786Z,13.90
2023-10-20T17:28:38.671Z,14.00
2023-10-20T17:31:06.093Z,14.00
2023-10-20T17:33:33.491Z,14.00
2023-10-20T17:36:09.091Z,14.10
2023-10-20T17:38:36.338Z,14.10
2023-10-20T17:41:04.842Z,14.10
2023-10-20T17:43:32.696Z,14.10
2023-10-20T17:46:04.608Z,14.10
2023-10-20T17:48:31.678Z,14.10
2023-10-20T17:51:01.149Z,14.20
2023-10-20T17:53:29.268Z,14.20
2023-10-20T17:55:57.407Z,14.20
2023-10-20T17:58:26.825Z,14.20
2023-10-20T18:00:54.025Z,14.30
2023-10-20T18:03:21.383Z,14.20
2023-10-20T18:05:50.599Z,14.40
2023-10-20T18:08:19.568Z,14.30
2023-10-20T18:10:46.621Z,14.30
2023-10-20T18:13:14.024Z,14.40
2023-10-20T18:15:41.051Z,14.30
2023-10-20T18:18:08.076Z,14.40
2023-10-20T18:20:39.774Z,14.40
2023-10-20T18:23:06.967Z,14.40
2023-10-20T18:25:33.994Z,14.30
2023-10-20T18:28:04.795Z,14.30
2023-10-20T18:30:31.809Z,14.20
2023-10-20T18:32:59.161Z,14.10
2023-10-20T18:35:26.453Z,14.30
2023-10-20T18:37:53.365Z,14.20
2023-10-20T18:40:20.437Z,14.20
2023-10-20T18:42:49.109Z,14.20
2023-10-20T18:45:16.378Z,14.30
2023-10-20T18:47:43.435Z,14.00
2023-10-20T18:50:11.231Z,14.30
2023-10-20T18:52:38.496Z,14.30
2023-10-20T18:55:07.034Z,14.30
2023-10-20T18:57:34.131Z,14.30
2023-10-20T19:00:01.431Z,14.00
2023-10-20T19:02:28.432Z,14.40
2023-10-20T19:04:55.635Z,14.30
2023-10-20T19:07:22.816Z,13.90
2023-10-20T19:09:55.414Z,14.20
2023-10-20T19:12:22.537Z,14.90
2023-10-20T19:14:50.004Z,14.20
2023-10-20T19:17:17.445Z,14.20
2023-10-20T19:19:48.303Z,14.20
2023-10-20T19:22:15.471Z,13.90
2023-10-20T19:24:42.496Z,14.80
2023-10-20T19:27:09.953Z,14.20
2023-10-20T19:29:37.278Z,14.20
2023-10-20T19:32:06.294Z,14.20
2023-10-20T19:34:33.489Z,14.10
2023-10-20T19:37:00.647Z,14.10
2023-10-20T19:39:27.698Z,14.10
2023-10-20T19:41:55.456Z,14.10
2023-10-20T19:44:22.638Z,14.10
2023-10-20T19:46:50.717Z,13.90
2023-10-20T19:49:17.834Z,13.90
2023-10-20T19:51:44.990Z,13.80
2023-10-20T19:54:13.254Z,13.80
2023-10-20T19:56:40.550Z,13.70
2023-10-20T19:59:08.446Z,13.60
2023-10-20T20:01:35.595Z,13.60
2023-10-20T20:04:03.362Z,13.60
2023-10-20T20:06:30.975Z,13.60
2023-10-20T20:08:57.921Z,13.60
2023-10-20T20:11:25.101Z,13.70
2023-10-20T20:13:52.053Z,13.60
2023-10-20T20:16:19.831Z,13.60
2023-10-20T20:18:46.958Z,13.50
2023-10-20T20:21:14.212Z,13.70
2023-10-20T20:23:41.704Z,13.00
2023-10-20T20:26:11.237Z,13.50
2023-10-20T20:28:38.537Z,13.60
2023-10-20T20:31:06.791Z,13.50
2023-10-20T20:33:34.208Z,13.40
2023-10-20T20:36:02.184Z,13.50
2023-10-20T20:38:29.331Z,13.40
2023-10-20T20:40:56.459Z,13.40
2023-10-20T20:43:24.442Z,13.10
2023-10-20T20:45:55.826Z,13.50
2023-10-20T20:48:23.058Z,13.50
2023-10-20T20:50:50.699Z,13.50
2023-10-20T20:53:18.542Z,13.50
2023-10-20T20:55:47.533Z,13.50
2023-10-20T20:58:15.208Z,13.70
2023-10-20T21:00:42.379Z,13.50
2023-10-20T21:03:09.677Z,13.40
2023-10-20T21:05:37.059Z,13.30
2023-10-20T21:08:04.991Z,13.40
2023-10-20T21:10:32.447Z,13.00
2023-10-20T21:12:59.754Z,13.20
2023-10-20T21:15:26.788Z,12.70
2023-10-20T21:17:53.911Z,13.40
2023-10-20T21:20:21.111Z,13.40
2023-10-20T21:22:52.310Z,12.70
2023-10-20T21:25:20.823Z,13.30
2023-10-20T21:27:47.864Z,13.40
2023-10-20T21:30:15.224Z,13.50
2023-10-20T21:32:42.324Z,13.40
2023-10-20T21:35:09.443Z,13.40
2023-10-20T21:37:36.368Z,13.00
2023-10-20T21:40:04.033Z,13.20
2023-10-20T21:42:33.925Z,12.90
2023-10-20T21:45:01.223Z,12.40
2023-10-20T21:47:28.279Z,13.20
2023-10-20T21:49:55.421Z,13.10
2023-10-20T21:52:22.389Z,13.70
2023-10-20T21:54:49.522Z,13.40
2023-10-20T21:57:16.871Z,13.30
2023-10-20T21:59:44.103Z,12.80
2023-10-20T22:02:13.947Z,12.70
2023-10-20T22:04:41.464Z,13.20
2023-10-20T22:07:08.415Z,13.10
2023-10-20T22:09:52.462Z,13.10
2023-10-20T22:12:21.269Z,13.10
2023-10-20T22:14:48.592Z,13.30
2023-10-20T22:17:15.541Z,13.30
2023-10-20T22:19:42.688Z,13.70
2023-10-20T22:22:09.659Z,14.30
2023-10-20T22:24:36.707Z,14.90
2023-10-20T22:27:05.013Z,14.40
2023-10-20T22:29:33.616Z,14.70
2023-10-20T22:32:00.767Z,14.70
2023-10-20T22:34:27.971Z,14.90
2023-10-20T22:36:54.943Z,15.40
2023-10-20T22:39:24.614Z,14.70
2023-10-20T22:41:51.816Z,14.90
2023-10-20T22:44:18.895Z,15.40
2023-10-20T22:46:52.045Z,15.50
2023-10-20T22:49:20.012Z,15.40
2023-10-20T22:51:47.176Z,15.60
2023-10-20T22:54:14.536Z,15.60
2023-10-20T22:56:43.879Z,15.90
2023-10-20T22:59:11.043Z,15.60
2023-10-20T23:01:38.512Z,16.10
2023-10-20T23:04:07.886Z,15.60
2023-10-20T23:06:42.813Z,16.30
2023-10-20T23:09:11.435Z,15.70
2023-10-20T23:11:40.627Z,15.70
2023-10-20T23:14:07.985Z,16.40
2023-10-20T23:16:38.401Z,15.80
2023-10-20T23:24:35.743Z,16.50
2023-10-20T23:27:04.727Z,15.90
2023-10-20T23:29:41.297Z,16.00
2023-10-20T23:32:10.144Z,16.00
2023-10-20T23:34:38.423Z,15.90
2023-10-20T23:37:05.918Z,16.90
2023-10-20T23:39:34.220Z,16.30
2023-10-20T23:42:03.428Z,17.00
2023-10-20T23:44:31.195Z,16.50
2023-10-20T23:46:58.395Z,16.30
2023-10-20T23:49:25.582Z,16.20
2023-10-20T23:51:53.055Z,15.40
2023-10-20T23:54:20.622Z,16.40
2023-10-20T23:56:48.318Z,16.40
2023-10-20T23:59:15.504Z,15.90
